Terminal Aerodrome Forecast
Issued by NWS Atlanta, GA

Current Version | Previous Version | Text Only | Print | Product List | Glossary On
Versions: 1 2 3 4 5 6 7 8 9 10 11 12 13 14 15 16 17 18 19
000
FTUS42 KFFC 281741
TAFMCN
TAF
KMCN 281741Z 2818/2918 16008KT P6SM VCSH FEW050 SCT100
      TEMPO 2819/2823 VRB15KT 3SM TSRA BKN025CB
     FM282300 14006KT P6SM SCT040 BKN080
     FM290600 VRB03KT P6SM SCT015 BKN045
     FM291400 15007KT P6SM BKN030=

USA.gov is the U.S. government's official web portal to all federal, state and local government web resources and services.